Overview Statistics Trail Chart Weather Telemetry Raw packets
 

This is the latest recevied weather packets stored in our database for station/object HA5KNF-10. If no packets are shown the sender has not sent any weather packets the latest 10 day(s).

<< 5 6 7 8 9 >>
Time Temp. Humidity Pressure Rain* Wind** Luminosity Snow
1787981557 24.44° C 39% 1000.2 hPa - - - -
1787978018 24.44° C 39% 1000.2 hPa - - - -
1787974477 24.44° C 36% 1001 hPa - - - -
1787970937 25° C 34% 999.3 hPa - - - -
1787967398 25° C 33% 998 hPa - - - -
1787963856 25° C 31% 999 hPa - - - -
1787960316 25.56° C 30% 998.7 hPa - - - -
1787956776 25.56° C 29% 999.2 hPa - - - -
1787953245 25.56° C 29% 999.6 hPa - - - -
1787949696 26.11° C 28% 999.6 hPa - - - -
1787946156 26.67° C 29% 1000.1 hPa - - - -
1787942616 27.22° C 32% 1000.2 hPa - - - -
1787939076 27.78° C 32% 999.8 hPa - - - -
1787935535 27.78° C 32% 1000 hPa - - - -
1787931995 27.78° C 31% 1000.5 hPa - - - -
1787928455 28.33° C 29% 1000.9 hPa - - - -
1787924915 27.78° C 30% 1001.7 hPa - - - -
1787921375 27.22° C 30% 1002.3 hPa - - - -
1787917835 26.67° C 31% 1003.1 hPa - - - -
1787910754 25° C 36% 1004.4 hPa - - - -
1787907214 23.89° C 38% 1005 hPa - - - -
1787900134 23.33° C 40% 1005 hPa - - - -
1787896594 23.33° C 39% 1005.3 hPa - - - -
1787893054 23.33° C 38% 1005.3 hPa - - - -
1787889514 23.33° C 39% 1005 hPa - - - -

* Rain since midnight (hover to see other rain measurements)
** Current wind speed in m/s (hover to see current wind gust speed)